Sagres — CTEC — position and weather

sailwx.info

Track history (hours):
 
Tides and Currents Weather Stations Pressure Air Temp Water Temp Dewpoint Dewpoint Depression Visibility Wind Speed Wind Dir Waves Ship Positions

Sagres (Portugal)

Last reported at 2020-Sep-26 07:59 UTC. Time now 2020-Sep-26 08:08 UTC.
Position N 38°40' W 009°09'.

Length 90 m; draft 5.5 m.

Type: Sailing vessel. MMSI: 263141000.

Date/timePositionNaut miles runAvg speedWind from/ knotsBaromVisibWave heightAir tempDewpointWater temp
2020-Sep-26 07:59N 38°40' W 009°09'0 0.0
2020-Sep-26 07:29N 38°40' W 009°09'0 0.0
2020-Sep-26 06:59N 38°40' W 009°09'0 0.0
2020-Sep-26 06:29N 38°40' W 009°09'0 0.0
2020-Sep-26 05:29N 38°40' W 009°09'0 0.0
2020-Sep-26 00:29N 38°40' W 009°09'0 0.0
2020-Sep-25 23:29N 38°40' W 009°09'0 0.0
2020-Sep-25 20:29N 38°40' W 009°09'0 0.0
2020-Sep-25 19:29N 38°40' W 009°09'0 0.0
2020-Sep-25 14:29N 38°40' W 009°09'0 0.0
2020-Sep-25 13:59N 38°40' W 009°09'0 0.0
2020-Sep-25 13:29N 38°40' W 009°09'0 0.0
2020-Sep-25 08:29N 38°40' W 009°09'0 0.0
2020-Sep-25 07:29N 38°40' W 009°09'0 0.0
2020-Sep-25 06:59N 38°40' W 009°09'0 0.0
2020-Sep-25 05:59N 38°40' W 009°09'0 0.0
2020-Sep-25 03:59N 38°40' W 009°09'0 0.0
2020-Sep-25 00:29N 38°40' W 009°09'21 2.7
2020-Sep-24 17:00N 38°39' W 009°35'6 6.0
2020-Sep-24 16:00N 38°43' W 009°40'3 6.8
2020-Sep-24 15:30N 38°46' W 009°41'8 5.6
2020-Sep-24 14:00N 38°54' W 009°43'30 4.6
2020-Sep-24 07:30N 38°25' W 009°37'5 5.5
2020-Sep-24 06:30N 38°21' W 009°32'6 5.7
2020-Sep-24 05:31N 38°16' W 009°28'6 2.4
2020-Sep-24 03:00N 38°11' W 009°25'3 6.0
2020-Sep-24 02:30N 38°08' W 009°24'3 6.1
2020-Sep-24 02:00N 38°05' W 009°24'26 5.7
2020-Sep-23 21:30N 37°40' W 009°18'8 5.2
2020-Sep-23 20:00N 37°32' W 009°17'3 5.4
2020-Sep-23 19:25N 37°29' W 009°16'0 5.3
2020-Sep-23 19:23N 37°28' W 009°16'2 5.3
2020-Sep-23 19:00N 37°26' W 009°15'28 5.2
2020-Sep-23 13:35N 36°60' W 009°05'8 4.8
2020-Sep-23 12:00N 36°56' W 008°57'5 4.6
2020-Sep-23 11:00N 36°57' W 008°51'3 6.2
2020-Sep-23 10:30N 36°58' W 008°48'11 1.2
2020-Sep-23 01:43N 37°06' W 008°38'0 0.0
2020-Sep-22 22:49N 37°06' W 008°38'1 0.2
2020-Sep-22 16:30N 37°05' W 008°38'3 5.8
2020-Sep-22 16:00N 37°02' W 008°38'3 5.6
2020-Sep-22 15:30N 36°59' W 008°38'9 2.5
2020-Sep-22 12:01N 36°58' W 008°49'7 6.5
2020-Sep-22 10:58N 36°57' W 008°58'38 5.5
2020-Sep-22 03:57N 37°33' W 009°16'3 6.2
2020-Sep-22 03:30N 37°36' W 009°16'27 6.1
2020-Sep-21 23:01N 38°03' W 009°21'6 6.2
2020-Sep-21 22:00N 38°09' W 009°22'3 6.0
2020-Sep-21 21:31N 38°12' W 009°23'6 6.1
2020-Sep-21 20:31N 38°18' W 009°24'18 6.0
2020-Sep-21 17:31N 38°36' W 009°21'7 4.6
2020-Sep-21 16:00N 38°41' W 009°16'5 2.7
2020-Sep-21 13:59N 38°40' W 009°09'0 0.0
2020-Sep-21 10:29N 38°40' W 009°09'  
Track history (hours):
 
Tides and Currents Weather Stations Pressure Air Temp Water Temp Dewpoint Dewpoint Depression Visibility Wind Speed Wind Dir Waves Ship Positions

Sagres (Portugal)

Last reported at 2020-Sep-26 07:59 UTC. Time now 2020-Sep-26 08:08 UTC.
Position N 38°40' W 009°09'.

Length 90 m; draft 5.5 m.

Type: Sailing vessel. MMSI: 263141000.

Date/timePositionNaut miles runAvg speedWind from/ knotsBaromVisibWave heightAir tempDewpointWater temp
2020-Sep-26 07:59N 38°40' W 009°09'0 0.0
2020-Sep-26 07:29N 38°40' W 009°09'0 0.0
2020-Sep-26 06:59N 38°40' W 009°09'0 0.0
2020-Sep-26 06:29N 38°40' W 009°09'0 0.0
2020-Sep-26 05:29N 38°40' W 009°09'0 0.0
2020-Sep-26 00:29N 38°40' W 009°09'0 0.0
2020-Sep-25 23:29N 38°40' W 009°09'0 0.0
2020-Sep-25 20:29N 38°40' W 009°09'0 0.0
2020-Sep-25 19:29N 38°40' W 009°09'0 0.0
2020-Sep-25 14:29N 38°40' W 009°09'0 0.0
2020-Sep-25 13:59N 38°40' W 009°09'0 0.0
2020-Sep-25 13:29N 38°40' W 009°09'0 0.0
2020-Sep-25 08:29N 38°40' W 009°09'0 0.0
2020-Sep-25 07:29N 38°40' W 009°09'0 0.0
2020-Sep-25 06:59N 38°40' W 009°09'0 0.0
2020-Sep-25 05:59N 38°40' W 009°09'0 0.0
2020-Sep-25 03:59N 38°40' W 009°09'0 0.0
2020-Sep-25 00:29N 38°40' W 009°09'21 2.7
2020-Sep-24 17:00N 38°39' W 009°35'6 6.0
2020-Sep-24 16:00N 38°43' W 009°40'3 6.8
2020-Sep-24 15:30N 38°46' W 009°41'8 5.6
2020-Sep-24 14:00N 38°54' W 009°43'30 4.6
2020-Sep-24 07:30N 38°25' W 009°37'5 5.5
2020-Sep-24 06:30N 38°21' W 009°32'6 5.7
2020-Sep-24 05:31N 38°16' W 009°28'6 2.4
2020-Sep-24 03:00N 38°11' W 009°25'3 6.0
2020-Sep-24 02:30N 38°08' W 009°24'3 6.1
2020-Sep-24 02:00N 38°05' W 009°24'26 5.7
2020-Sep-23 21:30N 37°40' W 009°18'8 5.2
2020-Sep-23 20:00N 37°32' W 009°17'3 5.4
2020-Sep-23 19:25N 37°29' W 009°16'0 5.3
2020-Sep-23 19:23N 37°28' W 009°16'2 5.3
2020-Sep-23 19:00N 37°26' W 009°15'28 5.2
2020-Sep-23 13:35N 36°60' W 009°05'8 4.8
2020-Sep-23 12:00N 36°56' W 008°57'5 4.6
2020-Sep-23 11:00N 36°57' W 008°51'3 6.2
2020-Sep-23 10:30N 36°58' W 008°48'11 1.2
2020-Sep-23 01:43N 37°06' W 008°38'0 0.0
2020-Sep-22 22:49N 37°06' W 008°38'1 0.2
2020-Sep-22 16:30N 37°05' W 008°38'3 5.8
2020-Sep-22 16:00N 37°02' W 008°38'3 5.6
2020-Sep-22 15:30N 36°59' W 008°38'9 2.5
2020-Sep-22 12:01N 36°58' W 008°49'7 6.5
2020-Sep-22 10:58N 36°57' W 008°58'38 5.5
2020-Sep-22 03:57N 37°33' W 009°16'3 6.2
2020-Sep-22 03:30N 37°36' W 009°16'27 6.1
2020-Sep-21 23:01N 38°03' W 009°21'6 6.2
2020-Sep-21 22:00N 38°09' W 009°22'3 6.0
2020-Sep-21 21:31N 38°12' W 009°23'6 6.1
2020-Sep-21 20:31N 38°18' W 009°24'18 6.0
2020-Sep-21 17:31N 38°36' W 009°21'7 4.6
2020-Sep-21 16:00N 38°41' W 009°16'5 2.7
2020-Sep-21 13:59N 38°40' W 009°09'0 0.0
2020-Sep-21 10:29N 38°40' W 009°09'  

Dump ship's entire track history